sensor_id;sensor_type;location;lat;lon;timestamp;temperature;humidity
20174;DHT22;10246;50.620;7.232;2023-04-25T00:01:53;9.90;1.00
20174;DHT22;10246;50.620;7.232;2023-04-25T00:04:20;9.90;1.00
20174;DHT22;10246;50.620;7.232;2023-04-25T00:06:49;9.90;1.00
20174;DHT22;10246;50.620;7.232;2023-04-25T00:09:15;9.90;1.00
20174;DHT22;10246;50.620;7.232;2023-04-25T00:11:42;9.90;1.00
20174;DHT22;10246;50.620;7.232;2023-04-25T00:14:09;9.90;1.00
20174;DHT22;10246;50.620;7.232;2023-04-25T00:16:36;9.90;1.00
20174;DHT22;10246;50.620;7.232;2023-04-25T00:19:02;9.90;1.00
20174;DHT22;10246;50.620;7.232;2023-04-25T00:21:30;9.80;1.00
20174;DHT22;10246;50.620;7.232;2023-04-25T00:23:59;9.80;1.00
20174;DHT22;10246;50.620;7.232;2023-04-25T00:26:27;9.80;1.00
20174;DHT22;10246;50.620;7.232;2023-04-25T00:28:53;9.80;1.00
20174;DHT22;10246;50.620;7.232;2023-04-25T00:31:21;9.80;1.00
20174;DHT22;10246;50.620;7.232;2023-04-25T00:33:47;9.80;1.00
20174;DHT22;10246;50.620;7.232;2023-04-25T00:36:14;9.70;1.00
20174;DHT22;10246;50.620;7.232;2023-04-25T00:38:42;9.50;1.00
20174;DHT22;10246;50.620;7.232;2023-04-25T00:41:11;9.50;1.00
20174;DHT22;10246;50.620;7.232;2023-04-25T00:43:38;9.50;1.00
20174;DHT22;10246;50.620;7.232;2023-04-25T00:46:06;9.60;1.00
20174;DHT22;10246;50.620;7.232;2023-04-25T00:48:32;9.50;1.00
20174;DHT22;10246;50.620;7.232;2023-04-25T00:50:59;9.40;1.00
20174;DHT22;10246;50.620;7.232;2023-04-25T00:53:27;9.40;1.00
20174;DHT22;10246;50.620;7.232;2023-04-25T00:55:54;9.40;1.00
20174;DHT22;10246;50.620;7.232;2023-04-25T00:58:23;9.40;1.00
20174;DHT22;10246;50.620;7.232;2023-04-25T01:00:51;9.30;1.00
20174;DHT22;10246;50.620;7.232;2023-04-25T01:03:18;9.30;1.00
20174;DHT22;10246;50.620;7.232;2023-04-25T01:05:46;9.30;1.00
20174;DHT22;10246;50.620;7.232;2023-04-25T01:08:13;9.30;1.00
20174;DHT22;10246;50.620;7.232;2023-04-25T01:10:40;9.20;1.00
20174;DHT22;10246;50.620;7.232;2023-04-25T01:13:07;9.30;1.00
20174;DHT22;10246;50.620;7.232;2023-04-25T01:15:35;9.20;1.00
20174;DHT22;10246;50.620;7.232;2023-04-25T01:18:03;9.20;1.00
20174;DHT22;10246;50.620;7.232;2023-04-25T01:20:32;9.20;1.00
20174;DHT22;10246;50.620;7.232;2023-04-25T01:23:00;9.10;1.00
20174;DHT22;10246;50.620;7.232;2023-04-25T01:25:29;9.00;1.00
20174;DHT22;10246;50.620;7.232;2023-04-25T01:27:56;8.90;1.00
20174;DHT22;10246;50.620;7.232;2023-04-25T01:30:24;8.80;1.00
20174;DHT22;10246;50.620;7.232;2023-04-25T01:32:52;8.80;1.00
20174;DHT22;10246;50.620;7.232;2023-04-25T01:35:20;8.80;1.00
20174;DHT22;10246;50.620;7.232;2023-04-25T01:37:49;8.80;1.00
20174;DHT22;10246;50.620;7.232;2023-04-25T01:40:17;8.80;1.00
20174;DHT22;10246;50.620;7.232;2023-04-25T01:42:45;8.80;1.00
20174;DHT22;10246;50.620;7.232;2023-04-25T01:45:12;8.80;1.00
20174;DHT22;10246;50.620;7.232;2023-04-25T01:47:39;8.70;1.00
20174;DHT22;10246;50.620;7.232;2023-04-25T01:50:09;8.60;1.00
20174;DHT22;10246;50.620;7.232;2023-04-25T01:52:36;8.50;1.00
20174;DHT22;10246;50.620;7.232;2023-04-25T01:55:03;8.50;1.00
20174;DHT22;10246;50.620;7.232;2023-04-25T01:57:31;8.50;1.00
20174;DHT22;10246;50.620;7.232;2023-04-25T02:00:01;8.50;1.00
20174;DHT22;10246;50.620;7.232;2023-04-25T02:02:28;8.40;1.00
20174;DHT22;10246;50.620;7.232;2023-04-25T02:04:55;8.40;1.00
20174;DHT22;10246;50.620;7.232;2023-04-25T02:07:21;8.40;1.00
20174;DHT22;10246;50.620;7.232;2023-04-25T02:09:48;8.20;1.00
20174;DHT22;10246;50.620;7.232;2023-04-25T02:12:15;8.10;1.20
20174;DHT22;10246;50.620;7.232;2023-04-25T02:14:43;8.10;1.50
20174;DHT22;10246;50.620;7.232;2023-04-25T02:17:10;8.10;1.70
20174;DHT22;10246;50.620;7.232;2023-04-25T02:19:37;8.10;1.60
20174;DHT22;10246;50.620;7.232;2023-04-25T02:22:05;8.10;1.50
20174;DHT22;10246;50.620;7.232;2023-04-25T02:24:31;8.10;1.50
20174;DHT22;10246;50.620;7.232;2023-04-25T02:26:59;8.10;1.20
20174;DHT22;10246;50.620;7.232;2023-04-25T02:29:26;8.10;1.00
20174;DHT22;10246;50.620;7.232;2023-04-25T02:31:54;8.20;1.00
20174;DHT22;10246;50.620;7.232;2023-04-25T02:34:21;8.10;1.00
20174;DHT22;10246;50.620;7.232;2023-04-25T02:36:48;8.10;1.00
20174;DHT22;10246;50.620;7.232;2023-04-25T02:39:15;8.10;1.00
20174;DHT22;10246;50.620;7.232;2023-04-25T02:41:41;8.10;1.00
20174;DHT22;10246;50.620;7.232;2023-04-25T02:44:08;8.10;1.00
20174;DHT22;10246;50.620;7.232;2023-04-25T02:46:35;8.10;1.00
20174;DHT22;10246;50.620;7.232;2023-04-25T02:49:03;7.90;1.00
20174;DHT22;10246;50.620;7.232;2023-04-25T02:51:30;7.80;1.90
20174;DHT22;10246;50.620;7.232;2023-04-25T02:53:58;7.80;2.50
20174;DHT22;10246;50.620;7.232;2023-04-25T02:56:25;7.60;2.90
20174;DHT22;10246;50.620;7.232;2023-04-25T02:58:52;7.60;3.10
20174;DHT22;10246;50.620;7.232;2023-04-25T03:01:19;7.50;4.00
20174;DHT22;10246;50.620;7.232;2023-04-25T03:03:46;7.40;4.80
20174;DHT22;10246;50.620;7.232;2023-04-25T03:06:14;7.50;5.60
20174;DHT22;10246;50.620;7.232;2023-04-25T03:08:41;7.40;5.90
20174;DHT22;10246;50.620;7.232;2023-04-25T03:11:08;7.50;6.40
20174;DHT22;10246;50.620;7.232;2023-04-25T03:13:35;7.50;7.10
20174;DHT22;10246;50.620;7.232;2023-04-25T03:16:03;7.60;7.00
20174;DHT22;10246;50.620;7.232;2023-04-25T03:18:29;7.70;7.10
20174;DHT22;10246;50.620;7.232;2023-04-25T03:20:56;7.80;6.90
20174;DHT22;10246;50.620;7.232;2023-04-25T03:23:24;7.80;6.90
20174;DHT22;10246;50.620;7.232;2023-04-25T03:25:51;7.90;6.50
20174;DHT22;10246;50.620;7.232;2023-04-25T03:28:18;8.00;6.50
20174;DHT22;10246;50.620;7.232;2023-04-25T03:30:45;8.00;6.30
20174;DHT22;10246;50.620;7.232;2023-04-25T03:33:12;8.00;5.80
20174;DHT22;10246;50.620;7.232;2023-04-25T03:35:39;8.10;5.40
20174;DHT22;10246;50.620;7.232;2023-04-25T03:38:05;8.10;5.00
20174;DHT22;10246;50.620;7.232;2023-04-25T03:40:33;8.10;5.10
20174;DHT22;10246;50.620;7.232;2023-04-25T03:43:00;8.10;4.80
20174;DHT22;10246;50.620;7.232;2023-04-25T03:45:27;8.00;4.60
20174;DHT22;10246;50.620;7.232;2023-04-25T03:47:54;8.00;4.50
20174;DHT22;10246;50.620;7.232;2023-04-25T03:50:20;8.00;4.70
20174;DHT22;10246;50.620;7.232;2023-04-25T03:52:47;7.90;4.90
20174;DHT22;10246;50.620;7.232;2023-04-25T03:55:14;7.90;4.90
20174;DHT22;10246;50.620;7.232;2023-04-25T03:57:42;7.90;4.80
20174;DHT22;10246;50.620;7.232;2023-04-25T04:00:10;7.80;4.90
20174;DHT22;10246;50.620;7.232;2023-04-25T04:02:37;7.90;4.80
20174;DHT22;10246;50.620;7.232;2023-04-25T04:05:04;7.90;4.30
20174;DHT22;10246;50.620;7.232;2023-04-25T04:07:32;7.90;4.70
20174;DHT22;10246;50.620;7.232;2023-04-25T04:10:01;7.90;4.40
20174;DHT22;10246;50.620;7.232;2023-04-25T04:12:27;7.90;4.50
20174;DHT22;10246;50.620;7.232;2023-04-25T04:14:55;7.80;4.70
20174;DHT22;10246;50.620;7.232;2023-04-25T04:17:22;7.90;4.90
20174;DHT22;10246;50.620;7.232;2023-04-25T04:19:49;7.80;4.90
20174;DHT22;10246;50.620;7.232;2023-04-25T04:22:15;7.90;5.50
20174;DHT22;10246;50.620;7.232;2023-04-25T04:24:42;7.90;5.50
20174;DHT22;10246;50.620;7.232;2023-04-25T04:27:11;7.90;5.70
20174;DHT22;10246;50.620;7.232;2023-04-25T04:29:39;8.00;5.70
20174;DHT22;10246;50.620;7.232;2023-04-25T04:32:07;8.10;5.00
20174;DHT22;10246;50.620;7.232;2023-04-25T04:34:34;8.10;4.40
20174;DHT22;10246;50.620;7.232;2023-04-25T04:37:01;8.10;4.40
20174;DHT22;10246;50.620;7.232;2023-04-25T04:39:28;8.10;4.10
20174;DHT22;10246;50.620;7.232;2023-04-25T04:41:55;8.10;3.70
20174;DHT22;10246;50.620;7.232;2023-04-25T04:44:22;8.10;3.10
20174;DHT22;10246;50.620;7.232;2023-04-25T04:46:48;8.10;2.40
20174;DHT22;10246;50.620;7.232;2023-04-25T04:49:17;8.20;3.50
20174;DHT22;10246;50.620;7.232;2023-04-25T04:51:43;8.10;3.60
20174;DHT22;10246;50.620;7.232;2023-04-25T04:54:10;8.30;2.80
20174;DHT22;10246;50.620;7.232;2023-04-25T04:56:37;8.20;1.20
20174;DHT22;10246;50.620;7.232;2023-04-25T04:59:04;8.30;2.30
20174;DHT22;10246;50.620;7.232;2023-04-25T05:01:31;8.30;2.20
20174;DHT22;10246;50.620;7.232;2023-04-25T05:03:57;8.20;3.00
20174;DHT22;10246;50.620;7.232;2023-04-25T05:06:27;8.20;2.50
20174;DHT22;10246;50.620;7.232;2023-04-25T05:08:54;8.20;2.50
20174;DHT22;10246;50.620;7.232;2023-04-25T05:11:21;8.20;2.90
20174;DHT22;10246;50.620;7.232;2023-04-25T05:13:49;8.30;1.90
20174;DHT22;10246;50.620;7.232;2023-04-25T05:16:15;8.30;2.30
20174;DHT22;10246;50.620;7.232;2023-04-25T05:18:42;8.30;2.80
20174;DHT22;10246;50.620;7.232;2023-04-25T05:21:09;8.30;2.20
20174;DHT22;10246;50.620;7.232;2023-04-25T05:23:37;8.40;1.50
20174;DHT22;10246;50.620;7.232;2023-04-25T05:26:04;8.30;1.80
20174;DHT22;10246;50.620;7.232;2023-04-25T05:28:39;8.30;2.00
20174;DHT22;10246;50.620;7.232;2023-04-25T05:31:05;8.30;2.10
20174;DHT22;10246;50.620;7.232;2023-04-25T05:33:32;8.30;2.10
20174;DHT22;10246;50.620;7.232;2023-04-25T05:35:59;8.30;1.80
20174;DHT22;10246;50.620;7.232;2023-04-25T05:38:26;8.40;1.60
20174;DHT22;10246;50.620;7.232;2023-04-25T05:40:54;8.40;1.00
20174;DHT22;10246;50.620;7.232;2023-04-25T05:43:20;8.40;1.30
20174;DHT22;10246;50.620;7.232;2023-04-25T05:45:47;8.40;1.70
20174;DHT22;10246;50.620;7.232;2023-04-25T05:48:14;8.40;1.90
20174;DHT22;10246;50.620;7.232;2023-04-25T05:50:41;8.50;1.80
20174;DHT22;10246;50.620;7.232;2023-04-25T05:53:08;8.50;1.00
20174;DHT22;10246;50.620;7.232;2023-04-25T05:55:35;8.50;1.00
20174;DHT22;10246;50.620;7.232;2023-04-25T05:58:05;8.50;1.00
20174;DHT22;10246;50.620;7.232;2023-04-25T06:00:32;8.50;1.00
20174;DHT22;10246;50.620;7.232;2023-04-25T06:02:59;8.50;1.30
20174;DHT22;10246;50.620;7.232;2023-04-25T06:05:26;8.50;1.60
20174;DHT22;10246;50.620;7.232;2023-04-25T06:07:53;8.60;1.30
20174;DHT22;10246;50.620;7.232;2023-04-25T06:10:22;8.60;1.00
20174;DHT22;10246;50.620;7.232;2023-04-25T06:12:49;8.70;1.00
20174;DHT22;10246;50.620;7.232;2023-04-25T06:15:17;8.60;1.00
20174;DHT22;10246;50.620;7.232;2023-04-25T06:17:44;8.60;1.00
20174;DHT22;10246;50.620;7.232;2023-04-25T06:20:11;8.60;1.00
20174;DHT22;10246;50.620;7.232;2023-04-25T06:22:41;8.60;1.00
20174;DHT22;10246;50.620;7.232;2023-04-25T06:25:09;8.60;1.00
20174;DHT22;10246;50.620;7.232;2023-04-25T06:27:35;8.70;1.30
20174;DHT22;10246;50.620;7.232;2023-04-25T06:30:03;8.70;1.00
20174;DHT22;10246;50.620;7.232;2023-04-25T06:32:31;8.70;1.10
20174;DHT22;10246;50.620;7.232;2023-04-25T06:34:59;8.70;1.00
20174;DHT22;10246;50.620;7.232;2023-04-25T06:37:26;8.80;1.00
20174;DHT22;10246;50.620;7.232;2023-04-25T06:39:53;8.80;1.00
20174;DHT22;10246;50.620;7.232;2023-04-25T06:42:20;8.80;1.00
20174;DHT22;10246;50.620;7.232;2023-04-25T06:44:46;8.90;1.00
20174;DHT22;10246;50.620;7.232;2023-04-25T06:47:14;8.80;1.00
20174;DHT22;10246;50.620;7.232;2023-04-25T06:49:42;8.70;1.00
20174;DHT22;10246;50.620;7.232;2023-04-25T06:52:08;8.70;1.00
20174;DHT22;10246;50.620;7.232;2023-04-25T06:54:36;8.70;1.00
20174;DHT22;10246;50.620;7.232;2023-04-25T06:57:02;8.70;1.00
20174;DHT22;10246;50.620;7.232;2023-04-25T06:59:29;8.70;1.00
20174;DHT22;10246;50.620;7.232;2023-04-25T07:01:56;8.70;1.00
20174;DHT22;10246;50.620;7.232;2023-04-25T07:04:23;8.70;1.00
20174;DHT22;10246;50.620;7.232;2023-04-25T07:06:51;8.70;1.00
20174;DHT22;10246;50.620;7.232;2023-04-25T07:09:17;8.80;1.00
20174;DHT22;10246;50.620;7.232;2023-04-25T07:11:44;8.80;1.00
20174;DHT22;10246;50.620;7.232;2023-04-25T07:14:11;8.80;1.00
20174;DHT22;10246;50.620;7.232;2023-04-25T07:16:38;8.80;1.00
20174;DHT22;10246;50.620;7.232;2023-04-25T07:19:05;8.80;1.00
20174;DHT22;10246;50.620;7.232;2023-04-25T07:21:32;8.80;1.00
20174;DHT22;10246;50.620;7.232;2023-04-25T07:24:00;9.00;1.00
20174;DHT22;10246;50.620;7.232;2023-04-25T07:26:27;9.20;1.00
20174;DHT22;10246;50.620;7.232;2023-04-25T07:28:54;9.40;1.00
20174;DHT22;10246;50.620;7.232;2023-04-25T07:31:21;9.40;1.00
20174;DHT22;10246;50.620;7.232;2023-04-25T07:33:49;9.60;1.00
20174;DHT22;10246;50.620;7.232;2023-04-25T07:36:15;9.70;1.00
20174;DHT22;10246;50.620;7.232;2023-04-25T07:38:42;9.60;1.00
20174;DHT22;10246;50.620;7.232;2023-04-25T07:41:10;9.60;1.00
20174;DHT22;10246;50.620;7.232;2023-04-25T07:43:37;9.50;1.00
20174;DHT22;10246;50.620;7.232;2023-04-25T07:46:04;9.40;1.00
20174;DHT22;10246;50.620;7.232;2023-04-25T07:48:31;9.40;1.00
20174;DHT22;10246;50.620;7.232;2023-04-25T07:50:58;9.40;1.00
20174;DHT22;10246;50.620;7.232;2023-04-25T07:53:25;9.40;1.00
20174;DHT22;10246;50.620;7.232;2023-04-25T07:55:52;9.40;1.00
20174;DHT22;10246;50.620;7.232;2023-04-25T07:58:20;9.50;1.00
20174;DHT22;10246;50.620;7.232;2023-04-25T08:00:47;9.50;1.00
20174;DHT22;10246;50.620;7.232;2023-04-25T08:03:14;9.60;1.00
20174;DHT22;10246;50.620;7.232;2023-04-25T08:05:41;9.60;1.00
20174;DHT22;10246;50.620;7.232;2023-04-25T08:08:08;9.60;1.00
20174;DHT22;10246;50.620;7.232;2023-04-25T08:10:34;9.60;1.00
20174;DHT22;10246;50.620;7.232;2023-04-25T08:13:01;9.60;1.00
20174;DHT22;10246;50.620;7.232;2023-04-25T08:15:29;9.60;1.00
20174;DHT22;10246;50.620;7.232;2023-04-25T08:17:56;9.70;1.00
20174;DHT22;10246;50.620;7.232;2023-04-25T08:20:23;9.80;1.00
20174;DHT22;10246;50.620;7.232;2023-04-25T08:22:50;9.80;1.00
20174;DHT22;10246;50.620;7.232;2023-04-25T08:25:17;9.90;1.00
20174;DHT22;10246;50.620;7.232;2023-04-25T08:27:43;10.00;1.00
20174;DHT22;10246;50.620;7.232;2023-04-25T08:30:11;9.80;1.00
20174;DHT22;10246;50.620;7.232;2023-04-25T08:32:39;9.80;1.00
20174;DHT22;10246;50.620;7.232;2023-04-25T08:35:06;9.90;1.00
20174;DHT22;10246;50.620;7.232;2023-04-25T08:37:33;10.00;1.00
20174;DHT22;10246;50.620;7.232;2023-04-25T08:40:01;10.10;1.00
20174;DHT22;10246;50.620;7.232;2023-04-25T08:42:33;10.10;1.00
20174;DHT22;10246;50.620;7.232;2023-04-25T08:45:01;9.90;1.00
20174;DHT22;10246;50.620;7.232;2023-04-25T08:47:30;9.80;1.00
20174;DHT22;10246;50.620;7.232;2023-04-25T08:50:02;9.90;1.00
20174;DHT22;10246;50.620;7.232;2023-04-25T08:52:36;10.10;1.00
20174;DHT22;10246;50.620;7.232;2023-04-25T08:55:04;10.10;1.00
20174;DHT22;10246;50.620;7.232;2023-04-25T08:57:33;10.00;1.00
20174;DHT22;10246;50.620;7.232;2023-04-25T09:00:01;9.90;1.00
20174;DHT22;10246;50.620;7.232;2023-04-25T09:02:29;9.80;1.00
20174;DHT22;10246;50.620;7.232;2023-04-25T09:04:56;9.90;1.00
20174;DHT22;10246;50.620;7.232;2023-04-25T09:07:25;9.90;1.00
20174;DHT22;10246;50.620;7.232;2023-04-25T09:09:51;10.00;1.00
20174;DHT22;10246;50.620;7.232;2023-04-25T09:12:19;10.10;1.00
20174;DHT22;10246;50.620;7.232;2023-04-25T09:15:02;10.10;1.00
20174;DHT22;10246;50.620;7.232;2023-04-25T09:17:29;10.10;1.00
20174;DHT22;10246;50.620;7.232;2023-04-25T09:20:05;10.30;1.00
20174;DHT22;10246;50.620;7.232;2023-04-25T09:22:34;10.30;1.00
20174;DHT22;10246;50.620;7.232;2023-04-25T09:25:03;10.30;1.00
20174;DHT22;10246;50.620;7.232;2023-04-25T09:27:30;10.30;1.00
20174;DHT22;10246;50.620;7.232;2023-04-25T09:29:58;10.40;1.00
20174;DHT22;10246;50.620;7.232;2023-04-25T09:32:26;10.50;1.00
20174;DHT22;10246;50.620;7.232;2023-04-25T09:34:54;10.40;1.00
20174;DHT22;10246;50.620;7.232;2023-04-25T09:37:22;10.60;1.00
20174;DHT22;10246;50.620;7.232;2023-04-25T09:39:52;10.80;1.00
20174;DHT22;10246;50.620;7.232;2023-04-25T09:42:22;11.20;1.00
20174;DHT22;10246;50.620;7.232;2023-04-25T09:44:51;11.40;1.00
20174;DHT22;10246;50.620;7.232;2023-04-25T09:47:19;11.50;1.00
20174;DHT22;10246;50.620;7.232;2023-04-25T09:49:47;11.50;1.00
20174;DHT22;10246;50.620;7.232;2023-04-25T09:52:15;11.20;1.00
20174;DHT22;10246;50.620;7.232;2023-04-25T09:54:43;11.20;1.00
20174;DHT22;10246;50.620;7.232;2023-04-25T09:57:13;11.30;1.00
20174;DHT22;10246;50.620;7.232;2023-04-25T09:59:43;11.40;1.00
20174;DHT22;10246;50.620;7.232;2023-04-25T10:02:11;11.40;1.00
20174;DHT22;10246;50.620;7.232;2023-04-25T10:04:38;11.40;1.00
20174;DHT22;10246;50.620;7.232;2023-04-25T10:07:06;11.30;1.00
20174;DHT22;10246;50.620;7.232;2023-04-25T10:09:36;11.10;1.00
20174;DHT22;10246;50.620;7.232;2023-04-25T10:12:05;11.10;1.00
20174;DHT22;10246;50.620;7.232;2023-04-25T10:14:34;11.10;1.00
20174;DHT22;10246;50.620;7.232;2023-04-25T10:17:03;11.20;1.00
20174;DHT22;10246;50.620;7.232;2023-04-25T10:19:30;11.30;1.00
20174;DHT22;10246;50.620;7.232;2023-04-25T10:22:04;11.40;1.00
20174;DHT22;10246;50.620;7.232;2023-04-25T10:24:32;11.40;1.00
20174;DHT22;10246;50.620;7.232;2023-04-25T10:27:00;11.30;1.00
20174;DHT22;10246;50.620;7.232;2023-04-25T10:29:28;11.40;1.00
20174;DHT22;10246;50.620;7.232;2023-04-25T10:31:57;11.30;1.00
20174;DHT22;10246;50.620;7.232;2023-04-25T10:34:37;11.20;1.00
20174;DHT22;10246;50.620;7.232;2023-04-25T10:37:05;11.10;1.00
20174;DHT22;10246;50.620;7.232;2023-04-25T10:39:35;11.10;1.00
20174;DHT22;10246;50.620;7.232;2023-04-25T10:42:02;11.10;1.00
20174;DHT22;10246;50.620;7.232;2023-04-25T10:44:31;11.00;1.00
20174;DHT22;10246;50.620;7.232;2023-04-25T10:47:00;10.90;1.00
20174;DHT22;10246;50.620;7.232;2023-04-25T10:49:32;10.80;1.00
20174;DHT22;10246;50.620;7.232;2023-04-25T10:52:11;10.80;1.00
20174;DHT22;10246;50.620;7.232;2023-04-25T10:54:41;10.80;1.00
20174;DHT22;10246;50.620;7.232;2023-04-25T10:57:26;10.80;1.00
20174;DHT22;10246;50.620;7.232;2023-04-25T10:59:54;10.80;1.00
20174;DHT22;10246;50.620;7.232;2023-04-25T11:02:26;10.80;1.00
20174;DHT22;10246;50.620;7.232;2023-04-25T11:04:54;11.00;1.00
20174;DHT22;10246;50.620;7.232;2023-04-25T11:07:28;11.20;1.00
20174;DHT22;10246;50.620;7.232;2023-04-25T11:09:56;11.40;1.00
20174;DHT22;10246;50.620;7.232;2023-04-25T11:12:24;11.60;1.00
20174;DHT22;10246;50.620;7.232;2023-04-25T11:14:58;11.80;1.00
20174;DHT22;10246;50.620;7.232;2023-04-25T11:17:28;11.70;1.00
20174;DHT22;10246;50.620;7.232;2023-04-25T11:19:55;11.70;1.00
20174;DHT22;10246;50.620;7.232;2023-04-25T11:22:23;11.90;1.00
20174;DHT22;10246;50.620;7.232;2023-04-25T11:24:49;12.00;1.00
20174;DHT22;10246;50.620;7.232;2023-04-25T11:27:17;11.80;1.00
20174;DHT22;10246;50.620;7.232;2023-04-25T11:29:44;11.80;1.00
20174;DHT22;10246;50.620;7.232;2023-04-25T11:32:14;11.50;1.00
20174;DHT22;10246;50.620;7.232;2023-04-25T11:34:44;11.40;1.00
20174;DHT22;10246;50.620;7.232;2023-04-25T11:37:11;11.40;1.00
20174;DHT22;10246;50.620;7.232;2023-04-25T11:39:43;11.50;1.00
20174;DHT22;10246;50.620;7.232;2023-04-25T11:42:10;11.50;1.00
20174;DHT22;10246;50.620;7.232;2023-04-25T11:44:38;11.80;1.00
20174;DHT22;10246;50.620;7.232;2023-04-25T11:47:05;12.00;1.00
20174;DHT22;10246;50.620;7.232;2023-04-25T11:49:32;12.00;1.00
20174;DHT22;10246;50.620;7.232;2023-04-25T11:52:02;12.00;1.00
20174;DHT22;10246;50.620;7.232;2023-04-25T11:54:28;11.70;1.00
20174;DHT22;10246;50.620;7.232;2023-04-25T11:56:55;11.70;1.00
20174;DHT22;10246;50.620;7.232;2023-04-25T11:59:24;11.60;1.00
20174;DHT22;10246;50.620;7.232;2023-04-25T12:01:51;11.40;1.00
20174;DHT22;10246;50.620;7.232;2023-04-25T12:04:20;11.40;1.00
20174;DHT22;10246;50.620;7.232;2023-04-25T12:06:48;11.30;1.00
20174;DHT22;10246;50.620;7.232;2023-04-25T12:09:18;11.30;1.00
20174;DHT22;10246;50.620;7.232;2023-04-25T12:11:46;11.20;1.00
20174;DHT22;10246;50.620;7.232;2023-04-25T12:14:20;11.10;1.00
20174;DHT22;10246;50.620;7.232;2023-04-25T12:16:48;11.10;1.00
20174;DHT22;10246;50.620;7.232;2023-04-25T12:19:17;10.90;1.00
20174;DHT22;10246;50.620;7.232;2023-04-25T12:21:44;10.90;1.00
20174;DHT22;10246;50.620;7.232;2023-04-25T12:24:12;10.90;1.00
20174;DHT22;10246;50.620;7.232;2023-04-25T12:26:48;10.80;1.00
20174;DHT22;10246;50.620;7.232;2023-04-25T12:29:17;10.70;1.00
20174;DHT22;10246;50.620;7.232;2023-04-25T12:31:43;10.90;1.00
20174;DHT22;10246;50.620;7.232;2023-04-25T12:34:11;11.00;1.00
20174;DHT22;10246;50.620;7.232;2023-04-25T12:36:38;10.90;1.00
20174;DHT22;10246;50.620;7.232;2023-04-25T12:39:05;10.90;1.00
20174;DHT22;10246;50.620;7.232;2023-04-25T12:41:33;10.90;1.00
20174;DHT22;10246;50.620;7.232;2023-04-25T12:44:01;11.10;1.00
20174;DHT22;10246;50.620;7.232;2023-04-25T12:46:28;11.20;1.00
20174;DHT22;10246;50.620;7.232;2023-04-25T12:48:55;11.40;1.00
20174;DHT22;10246;50.620;7.232;2023-04-25T12:51:22;11.50;1.00
20174;DHT22;10246;50.620;7.232;2023-04-25T12:53:50;11.50;1.00
20174;DHT22;10246;50.620;7.232;2023-04-25T12:56:18;11.50;1.00
20174;DHT22;10246;50.620;7.232;2023-04-25T12:58:45;11.50;1.00
20174;DHT22;10246;50.620;7.232;2023-04-25T13:01:15;11.40;1.00
20174;DHT22;10246;50.620;7.232;2023-04-25T13:03:41;11.50;1.00
20174;DHT22;10246;50.620;7.232;2023-04-25T13:06:08;11.60;1.00
20174;DHT22;10246;50.620;7.232;2023-04-25T13:08:35;11.70;1.00
20174;DHT22;10246;50.620;7.232;2023-04-25T13:11:03;11.80;1.00
20174;DHT22;10246;50.620;7.232;2023-04-25T13:13:31;11.70;1.00
20174;DHT22;10246;50.620;7.232;2023-04-25T13:16:00;11.80;1.00
20174;DHT22;10246;50.620;7.232;2023-04-25T13:18:29;11.80;1.00
20174;DHT22;10246;50.620;7.232;2023-04-25T13:20:56;12.00;1.00
20174;DHT22;10246;50.620;7.232;2023-04-25T13:23:24;12.20;1.00
20174;DHT22;10246;50.620;7.232;2023-04-25T13:25:51;12.20;1.00
20174;DHT22;10246;50.620;7.232;2023-04-25T13:28:18;12.20;1.00
20174;DHT22;10246;50.620;7.232;2023-04-25T13:30:46;12.20;1.00
20174;DHT22;10246;50.620;7.232;2023-04-25T13:33:13;12.30;1.00
20174;DHT22;10246;50.620;7.232;2023-04-25T13:35:42;12.50;1.00
20174;DHT22;10246;50.620;7.232;2023-04-25T13:38:08;12.70;1.00
20174;DHT22;10246;50.620;7.232;2023-04-25T13:40:35;12.70;1.00
20174;DHT22;10246;50.620;7.232;2023-04-25T13:43:02;12.70;1.00
20174;DHT22;10246;50.620;7.232;2023-04-25T13:45:29;12.60;1.00
20174;DHT22;10246;50.620;7.232;2023-04-25T13:47:56;12.60;1.00
20174;DHT22;10246;50.620;7.232;2023-04-25T13:50:22;12.70;1.00
20174;DHT22;10246;50.620;7.232;2023-04-25T13:52:51;12.70;1.00
20174;DHT22;10246;50.620;7.232;2023-04-25T13:55:18;12.70;1.00
20174;DHT22;10246;50.620;7.232;2023-04-25T13:57:44;12.70;1.00
20174;DHT22;10246;50.620;7.232;2023-04-25T14:00:12;12.40;1.00
20174;DHT22;10246;50.620;7.232;2023-04-25T14:02:39;12.20;1.00
20174;DHT22;10246;50.620;7.232;2023-04-25T14:05:07;12.10;1.00
20174;DHT22;10246;50.620;7.232;2023-04-25T14:07:35;12.10;1.00
20174;DHT22;10246;50.620;7.232;2023-04-25T14:10:04;12.00;1.00
20174;DHT22;10246;50.620;7.232;2023-04-25T14:12:31;12.00;1.00
20174;DHT22;10246;50.620;7.232;2023-04-25T14:14:58;11.90;1.00
20174;DHT22;10246;50.620;7.232;2023-04-25T14:17:25;11.90;1.00
20174;DHT22;10246;50.620;7.232;2023-04-25T14:19:52;11.80;1.00
20174;DHT22;10246;50.620;7.232;2023-04-25T14:22:19;11.70;1.00
20174;DHT22;10246;50.620;7.232;2023-04-25T14:24:45;11.60;1.00
20174;DHT22;10246;50.620;7.232;2023-04-25T14:27:14;11.50;1.00
20174;DHT22;10246;50.620;7.232;2023-04-25T14:29:41;11.50;1.00
20174;DHT22;10246;50.620;7.232;2023-04-25T14:32:08;11.50;1.00
20174;DHT22;10246;50.620;7.232;2023-04-25T14:34:35;11.50;1.00
20174;DHT22;10246;50.620;7.232;2023-04-25T14:37:02;11.40;1.00
20174;DHT22;10246;50.620;7.232;2023-04-25T14:39:29;11.40;1.00
20174;DHT22;10246;50.620;7.232;2023-04-25T14:41:56;11.50;1.00
20174;DHT22;10246;50.620;7.232;2023-04-25T14:44:24;11.50;1.00
20174;DHT22;10246;50.620;7.232;2023-04-25T14:46:51;11.50;1.00
20174;DHT22;10246;50.620;7.232;2023-04-25T14:49:18;11.60;1.00
20174;DHT22;10246;50.620;7.232;2023-04-25T14:51:45;11.70;1.00
20174;DHT22;10246;50.620;7.232;2023-04-25T14:54:11;11.90;1.00
20174;DHT22;10246;50.620;7.232;2023-04-25T14:56:38;11.80;1.00
20174;DHT22;10246;50.620;7.232;2023-04-25T14:59:05;11.90;1.00
20174;DHT22;10246;50.620;7.232;2023-04-25T15:01:33;12.10;1.00
20174;DHT22;10246;50.620;7.232;2023-04-25T15:04:00;12.20;1.00
20174;DHT22;10246;50.620;7.232;2023-04-25T15:06:27;12.10;1.00
20174;DHT22;10246;50.620;7.232;2023-04-25T15:08:55;12.30;1.00
20174;DHT22;10246;50.620;7.232;2023-04-25T15:11:22;12.60;1.00
20174;DHT22;10246;50.620;7.232;2023-04-25T15:13:49;12.80;1.00
20174;DHT22;10246;50.620;7.232;2023-04-25T15:16:16;13.10;1.00
20174;DHT22;10246;50.620;7.232;2023-04-25T15:18:44;13.30;1.00
20174;DHT22;10246;50.620;7.232;2023-04-25T15:21:11;13.30;1.00
20174;DHT22;10246;50.620;7.232;2023-04-25T15:23:38;13.20;1.00
20174;DHT22;10246;50.620;7.232;2023-04-25T15:26:04;13.30;1.00
20174;DHT22;10246;50.620;7.232;2023-04-25T15:28:31;13.20;1.00
20174;DHT22;10246;50.620;7.232;2023-04-25T15:30:59;13.20;1.00
20174;DHT22;10246;50.620;7.232;2023-04-25T15:33:25;13.00;1.00
20174;DHT22;10246;50.620;7.232;2023-04-25T15:35:54;12.90;1.00
20174;DHT22;10246;50.620;7.232;2023-04-25T15:38:21;13.00;1.00
20174;DHT22;10246;50.620;7.232;2023-04-25T15:40:48;12.90;1.00
20174;DHT22;10246;50.620;7.232;2023-04-25T15:43:15;12.60;1.00
20174;DHT22;10246;50.620;7.232;2023-04-25T15:45:42;12.50;1.00
20174;DHT22;10246;50.620;7.232;2023-04-25T15:48:09;12.40;1.00
20174;DHT22;10246;50.620;7.232;2023-04-25T15:50:36;12.50;1.00
20174;DHT22;10246;50.620;7.232;2023-04-25T15:53:04;12.50;1.00
20174;DHT22;10246;50.620;7.232;2023-04-25T15:55:32;12.40;1.00
20174;DHT22;10246;50.620;7.232;2023-04-25T15:57:59;12.40;1.00